createdAt,value
2022-12-24T00:01:24.020Z,1.67
2022-12-24T00:03:52.337Z,2.07
2022-12-24T00:06:22.297Z,1.67
2022-12-24T00:08:52.469Z,2.50
2022-12-24T00:11:20.998Z,1.37
2022-12-24T00:13:49.381Z,0.90
2022-12-24T00:16:17.484Z,2.10
2022-12-24T00:18:47.105Z,1.70
2022-12-24T00:21:15.959Z,3.87
2022-12-24T00:23:44.596Z,2.73
2022-12-24T00:26:15.225Z,1.47
2022-12-24T00:28:43.829Z,2.20
2022-12-24T00:31:14.199Z,1.23
2022-12-24T00:33:42.510Z,2.13
2022-12-24T00:36:11.143Z,1.80
2022-12-24T00:38:39.768Z,1.00
2022-12-24T00:41:25.109Z,2.10
2022-12-24T00:43:57.814Z,1.73
2022-12-24T00:46:27.961Z,1.33
2022-12-24T00:48:56.225Z,2.77
2022-12-24T00:51:26.377Z,1.30
2022-12-24T00:53:54.998Z,2.23
2022-12-24T00:56:23.589Z,1.60
2022-12-24T00:58:52.153Z,1.47
2022-12-24T01:01:22.475Z,1.37
2022-12-24T01:03:51.293Z,3.13
2022-12-24T01:06:21.235Z,1.30
2022-12-24T01:08:52.008Z,0.97
2022-12-24T01:11:20.881Z,1.90
2022-12-24T01:13:49.058Z,1.13
2022-12-24T01:16:20.366Z,1.23
2022-12-24T01:18:50.566Z,1.73
2022-12-24T01:21:18.718Z,1.90
2022-12-24T01:23:46.925Z,1.30
2022-12-24T01:26:15.294Z,2.17
2022-12-24T01:28:43.762Z,2.20
2022-12-24T01:31:14.298Z,2.80
2022-12-24T01:33:42.766Z,1.00
2022-12-24T01:36:13.521Z,2.77
2022-12-24T01:38:42.021Z,2.03
2022-12-24T01:41:33.396Z,2.50
2022-12-24T01:44:33.445Z,1.70
2022-12-24T01:47:10.461Z,1.40
2022-12-24T01:49:41.540Z,1.23
2022-12-24T01:52:15.955Z,1.40
2022-12-24T01:54:48.630Z,2.20
2022-12-24T01:57:20.340Z,1.67
2022-12-24T01:59:52.251Z,1.77
2022-12-24T02:02:21.494Z,2.40
2022-12-24T02:04:54.905Z,1.80
2022-12-24T02:07:24.488Z,1.77
2022-12-24T02:09:56.971Z,1.93
2022-12-24T02:12:26.185Z,1.30
2022-12-24T02:14:55.650Z,1.23
2022-12-24T02:17:32.893Z,2.50
2022-12-24T02:20:35.291Z,2.10
2022-12-24T02:23:19.019Z,1.40
2022-12-24T02:26:08.049Z,1.30
2022-12-24T02:28:56.572Z,1.47
2022-12-24T02:31:33.890Z,1.17
2022-12-24T02:34:09.474Z,1.23
2022-12-24T02:36:45.192Z,1.67
2022-12-24T02:39:19.121Z,1.50
2022-12-24T02:42:06.873Z,1.60
2022-12-24T02:44:40.893Z,2.97
2022-12-24T02:47:12.001Z,2.20
2022-12-24T02:49:40.596Z,1.70
2022-12-24T02:52:08.691Z,1.03
2022-12-24T02:54:36.813Z,1.53
2022-12-24T02:57:13.655Z,1.50
2022-12-24T02:59:56.901Z,1.43
2022-12-24T03:02:37.934Z,1.10
2022-12-24T03:05:20.089Z,1.03
2022-12-24T03:08:02.867Z,1.77
2022-12-24T03:10:37.368Z,1.73
2022-12-24T03:13:10.159Z,1.90
2022-12-24T03:15:39.571Z,1.80
2022-12-24T03:18:12.614Z,1.60
2022-12-24T03:20:43.335Z,1.50
2022-12-24T03:23:12.251Z,2.17
2022-12-24T03:25:42.662Z,1.90
2022-12-24T03:28:14.141Z,1.67
2022-12-24T03:30:43.379Z,1.40
2022-12-24T03:33:14.483Z,1.23
2022-12-24T03:35:42.773Z,1.03
2022-12-24T03:38:10.999Z,1.13
2022-12-24T03:40:39.195Z,1.90
2022-12-24T03:43:07.542Z,2.07
2022-12-24T03:45:35.684Z,0.97
2022-12-24T03:48:03.842Z,1.80
2022-12-24T03:50:34.035Z,1.80
2022-12-24T03:53:02.078Z,1.27
2022-12-24T03:55:30.435Z,2.03
2022-12-24T03:57:58.766Z,1.23
2022-12-24T04:00:26.941Z,1.13
2022-12-24T04:02:55.289Z,1.33
2022-12-24T04:05:23.733Z,1.77
2022-12-24T04:07:53.082Z,1.13
2022-12-24T04:10:21.281Z,1.43
2022-12-24T04:12:49.301Z,1.43
2022-12-24T04:15:17.334Z,1.17
2022-12-24T04:17:45.375Z,1.63
2022-12-24T04:20:14.186Z,1.77
2022-12-24T04:22:42.384Z,1.10
2022-12-24T04:25:12.228Z,1.03
2022-12-24T04:27:40.612Z,2.40
2022-12-24T04:30:10.213Z,1.07
2022-12-24T04:32:38.556Z,1.50
2022-12-24T04:35:07.285Z,1.20
2022-12-24T04:37:35.819Z,1.97
2022-12-24T04:40:04.092Z,1.20
2022-12-24T04:42:34.000Z,1.97
2022-12-24T04:45:02.484Z,1.57
2022-12-24T04:47:30.593Z,1.30
2022-12-24T04:49:59.362Z,1.00
2022-12-24T04:52:27.458Z,1.10
2022-12-24T04:54:55.839Z,1.40
2022-12-24T04:57:23.989Z,1.13
2022-12-24T04:59:53.434Z,1.10
2022-12-24T05:02:21.648Z,2.33
2022-12-24T05:04:49.899Z,1.00
2022-12-24T05:07:18.221Z,1.20
2022-12-24T05:09:46.382Z,1.70
2022-12-24T05:12:14.397Z,0.93
2022-12-24T05:14:42.922Z,1.93
2022-12-24T05:17:12.765Z,1.20
2022-12-24T05:19:40.856Z,1.43
2022-12-24T05:22:26.555Z,1.40
2022-12-24T05:25:11.933Z,1.57
2022-12-24T05:27:40.095Z,2.00
2022-12-24T05:30:09.485Z,2.00
2022-12-24T05:32:38.921Z,1.93
2022-12-24T05:35:07.485Z,1.57
2022-12-24T05:37:35.573Z,1.97
2022-12-24T05:40:03.760Z,1.33
2022-12-24T05:42:32.022Z,1.53
2022-12-24T05:45:00.131Z,1.37
2022-12-24T05:47:28.217Z,1.53
2022-12-24T05:49:57.637Z,1.63
2022-12-24T05:52:25.660Z,1.87
2022-12-24T05:54:54.139Z,1.17
2022-12-24T05:57:22.350Z,2.60
2022-12-24T05:59:50.915Z,1.50
2022-12-24T06:02:19.046Z,1.73
2022-12-24T06:04:47.400Z,1.30
2022-12-24T06:07:17.030Z,1.40
2022-12-24T06:09:45.048Z,1.30
2022-12-24T06:12:13.632Z,1.57
2022-12-24T06:14:41.726Z,1.33
2022-12-24T06:17:09.798Z,1.30
2022-12-24T06:19:37.878Z,1.50
2022-12-24T06:22:05.912Z,1.73
2022-12-24T06:24:35.440Z,2.47
2022-12-24T06:27:03.801Z,1.27
2022-12-24T06:29:31.868Z,1.23
2022-12-24T06:32:00.234Z,2.43
2022-12-24T06:34:28.378Z,2.00
2022-12-24T06:36:56.430Z,1.87
2022-12-24T06:39:25.763Z,1.27
2022-12-24T06:41:55.252Z,1.90
2022-12-24T06:44:23.415Z,1.70
2022-12-24T06:46:51.496Z,2.13
2022-12-24T06:49:19.731Z,1.57
2022-12-24T06:51:47.768Z,1.90
2022-12-24T06:54:16.007Z,1.40
2022-12-24T06:56:44.008Z,2.37
2022-12-24T06:59:13.596Z,1.60
2022-12-24T07:01:41.665Z,1.87
2022-12-24T07:04:16.236Z,0.90
2022-12-24T07:06:47.820Z,2.73
2022-12-24T07:09:16.091Z,1.37
2022-12-24T07:11:44.156Z,1.90
2022-12-24T07:14:13.860Z,2.27
2022-12-24T07:16:42.214Z,2.17
2022-12-24T07:19:11.273Z,1.97
2022-12-24T07:21:39.332Z,1.67
2022-12-24T07:24:07.974Z,1.60
2022-12-24T07:26:36.116Z,1.70
2022-12-24T07:29:04.294Z,2.80
2022-12-24T07:31:33.759Z,1.80
2022-12-24T07:34:02.133Z,1.60
2022-12-24T07:36:30.246Z,1.63
2022-12-24T07:38:58.459Z,1.47
2022-12-24T07:41:26.515Z,1.13
2022-12-24T07:43:54.876Z,2.03
2022-12-24T07:46:23.152Z,2.73
2022-12-24T07:48:52.538Z,2.17
2022-12-24T07:51:20.522Z,2.70
2022-12-24T07:53:48.608Z,2.03
2022-12-24T07:56:16.814Z,2.17
2022-12-24T07:58:45.199Z,1.77
2022-12-24T08:01:13.363Z,1.80
2022-12-24T08:03:41.434Z,2.70
2022-12-24T08:06:11.246Z,1.70
2022-12-24T08:08:39.650Z,1.90
2022-12-24T08:11:08.979Z,2.40
2022-12-24T08:13:37.196Z,1.40
2022-12-24T08:16:05.517Z,2.13
2022-12-24T08:18:33.769Z,2.03
2022-12-24T08:21:01.825Z,2.30
2022-12-24T08:23:31.176Z,2.70
2022-12-24T08:25:59.531Z,2.23
2022-12-24T08:28:27.516Z,1.30
2022-12-24T08:30:55.580Z,1.67
2022-12-24T08:33:23.661Z,2.40
2022-12-24T08:35:52.687Z,1.53
2022-12-24T08:38:21.075Z,1.60
2022-12-24T08:40:52.178Z,2.63
2022-12-24T08:43:20.470Z,2.23
2022-12-24T08:45:49.494Z,1.80
2022-12-24T08:48:17.651Z,2.40
2022-12-24T08:50:46.449Z,1.80
2022-12-24T08:53:15.163Z,1.83
2022-12-24T08:55:43.550Z,2.63
2022-12-24T08:58:13.269Z,1.53
2022-12-24T09:00:41.444Z,2.80
2022-12-24T09:03:14.338Z,1.37
2022-12-24T09:05:42.506Z,1.90
2022-12-24T09:08:10.767Z,1.77
2022-12-24T09:10:38.808Z,1.63
2022-12-24T09:13:07.026Z,2.90
2022-12-24T09:15:36.544Z,2.00
2022-12-24T09:18:04.898Z,3.07
2022-12-24T09:20:33.101Z,1.40
2022-12-24T09:23:01.155Z,1.70
2022-12-24T09:25:29.454Z,1.90
2022-12-24T09:27:57.424Z,1.80
2022-12-24T09:30:25.396Z,1.73
2022-12-24T09:32:54.771Z,1.50
2022-12-24T09:35:22.757Z,2.10
2022-12-24T09:38:02.693Z,2.23
2022-12-24T09:40:37.466Z,1.73
2022-12-24T09:43:12.928Z,2.60
2022-12-24T09:45:47.836Z,2.20
2022-12-24T09:48:19.347Z,2.27
2022-12-24T09:50:53.091Z,1.40
2022-12-24T09:53:26.162Z,2.00
2022-12-24T09:55:58.049Z,2.50
2022-12-24T09:58:30.137Z,1.50
2022-12-24T10:00:59.055Z,1.50
2022-12-24T10:03:28.541Z,2.23
2022-12-24T10:06:07.962Z,2.90
2022-12-24T10:08:46.155Z,1.20
2022-12-24T10:11:23.327Z,2.00
2022-12-24T10:14:04.394Z,2.70
2022-12-24T10:16:42.831Z,1.57
2022-12-24T10:19:18.911Z,1.67
2022-12-24T10:21:59.486Z,1.73
2022-12-24T10:24:32.534Z,2.00
2022-12-24T10:27:07.175Z,2.00
2022-12-24T10:29:38.756Z,2.60
2022-12-24T10:32:17.641Z,2.00
2022-12-24T10:34:52.562Z,1.90
2022-12-24T10:37:25.433Z,1.50
2022-12-24T10:39:54.067Z,1.67
2022-12-24T10:42:24.463Z,2.67
2022-12-24T10:44:58.323Z,2.73
2022-12-24T10:47:27.423Z,1.80
2022-12-24T10:50:04.438Z,2.97
2022-12-24T10:52:36.863Z,2.27
2022-12-24T10:55:10.959Z,2.63
2022-12-24T10:57:40.259Z,2.30
2022-12-24T11:00:19.254Z,1.70
2022-12-24T11:02:49.271Z,2.13
2022-12-24T11:05:32.202Z,2.73
2022-12-24T11:08:04.328Z,1.90
2022-12-24T11:10:34.182Z,1.70
2022-12-24T11:13:35.726Z,1.83
2022-12-24T11:15:52.953Z,1.73
2022-12-24T11:18:21.035Z,2.10
2022-12-24T11:20:54.191Z,2.50
2022-12-24T11:23:23.841Z,1.80
2022-12-24T11:25:52.905Z,2.90
2022-12-24T11:28:23.085Z,1.93
2022-12-24T11:31:00.362Z,1.70
2022-12-24T11:33:29.291Z,2.00
2022-12-24T11:36:07.556Z,2.10
2022-12-24T11:38:37.055Z,1.70
2022-12-24T11:41:08.538Z,1.50
2022-12-24T11:43:46.816Z,2.60
2022-12-24T11:46:21.215Z,2.70
2022-12-24T11:48:49.613Z,1.70
2022-12-24T11:51:24.304Z,1.87
2022-12-24T11:54:01.335Z,3.37
2022-12-24T11:56:36.191Z,2.77
2022-12-24T11:59:13.732Z,1.37
2022-12-24T12:01:51.296Z,1.60
2022-12-24T12:04:23.611Z,1.60
2022-12-24T12:06:56.379Z,2.13
2022-12-24T12:09:26.840Z,2.20
2022-12-24T12:11:58.706Z,1.70
2022-12-24T12:14:33.878Z,1.60
2022-12-24T12:17:07.686Z,2.00
2022-12-24T12:19:43.573Z,1.50
2022-12-24T12:22:24.437Z,2.20
2022-12-24T12:24:54.754Z,1.60
2022-12-24T12:27:31.707Z,1.73
2022-12-24T12:30:03.326Z,1.97
2022-12-24T12:32:42.419Z,1.63
2022-12-24T12:35:24.030Z,2.03
2022-12-24T12:37:59.689Z,1.67
2022-12-24T12:40:40.641Z,1.70
2022-12-24T12:43:19.041Z,1.63
2022-12-24T12:45:54.370Z,1.77
2022-12-24T12:48:40.275Z,1.83
2022-12-24T12:51:11.913Z,1.90
2022-12-24T12:54:00.232Z,2.00
2022-12-24T12:56:32.212Z,1.73
2022-12-24T12:59:05.603Z,1.73
2022-12-24T13:01:43.658Z,1.70
2022-12-24T13:04:55.239Z,1.93
2022-12-24T13:07:52.308Z,2.33
2022-12-24T13:10:52.070Z,1.40
2022-12-24T13:13:40.058Z,2.27
2022-12-24T13:16:28.305Z,2.43
2022-12-24T13:19:10.075Z,1.73
2022-12-24T13:21:43.682Z,2.60
2022-12-24T13:24:18.636Z,1.80
2022-12-24T13:27:04.889Z,1.40
2022-12-24T13:29:44.988Z,1.53
2022-12-24T13:32:55.334Z,1.77
2022-12-24T13:35:57.413Z,1.47
2022-12-24T13:38:41.053Z,1.73
2022-12-24T13:41:58.035Z,1.40
2022-12-24T13:44:33.805Z,1.17
2022-12-24T13:47:31.687Z,1.83
2022-12-24T13:50:22.501Z,1.30
2022-12-24T13:52:53.672Z,2.20
2022-12-24T13:55:22.425Z,2.23
2022-12-24T13:57:59.529Z,1.67
2022-12-24T14:00:34.739Z,2.17
2022-12-24T14:03:08.289Z,2.20
2022-12-24T14:05:41.311Z,2.37
2022-12-24T14:08:12.825Z,1.73
2022-12-24T14:10:43.500Z,1.60
2022-12-24T14:13:44.939Z,1.10
2022-12-24T14:16:17.047Z,1.43
2022-12-24T14:18:47.799Z,1.40
2022-12-24T14:21:19.524Z,2.17
2022-12-24T14:23:54.940Z,1.20
2022-12-24T14:26:25.441Z,1.50
2022-12-24T14:28:58.542Z,1.27
2022-12-24T14:31:27.980Z,1.10
2022-12-24T14:34:07.999Z,1.90
2022-12-24T14:36:37.261Z,1.40
2022-12-24T14:39:09.303Z,1.23
2022-12-24T14:41:51.595Z,1.60
2022-12-24T14:44:33.937Z,2.03
2022-12-24T14:47:17.263Z,1.43
2022-12-24T14:50:02.122Z,2.07
2022-12-24T14:53:03.900Z,1.70
2022-12-24T14:55:36.467Z,1.33
2022-12-24T14:58:23.894Z,1.70
2022-12-24T15:00:53.058Z,2.93
2022-12-24T15:03:24.287Z,1.23
2022-12-24T15:05:55.133Z,1.20
2022-12-24T15:08:29.414Z,1.13
2022-12-24T15:11:01.483Z,1.77
2022-12-24T15:13:36.738Z,2.27
2022-12-24T15:16:08.760Z,1.83
2022-12-24T15:18:43.287Z,1.70
2022-12-24T15:21:19.024Z,1.60
2022-12-24T15:23:50.276Z,2.00
2022-12-24T15:26:23.741Z,2.50
2022-12-24T15:28:58.325Z,1.20
2022-12-24T15:31:31.144Z,2.60
2022-12-24T15:34:00.775Z,2.20
2022-12-24T15:36:32.391Z,1.70
2022-12-24T15:39:03.251Z,1.73
2022-12-24T15:41:58.998Z,1.60
2022-12-24T15:44:27.713Z,2.20
2022-12-24T15:46:59.853Z,2.60
2022-12-24T15:49:30.686Z,2.50
2022-12-24T15:52:05.568Z,2.37
2022-12-24T15:54:33.631Z,1.97
2022-12-24T15:57:13.845Z,3.00
2022-12-24T15:59:42.034Z,3.47
2022-12-24T16:02:41.440Z,2.20
2022-12-24T16:05:43.954Z,2.27
2022-12-24T16:08:24.710Z,2.40
2022-12-24T16:10:56.697Z,2.10
2022-12-24T16:13:30.054Z,2.40
2022-12-24T16:16:01.589Z,1.63
2022-12-24T16:18:33.949Z,1.67
2022-12-24T16:21:03.912Z,2.60
2022-12-24T16:23:37.842Z,2.13
2022-12-24T16:26:06.387Z,2.20
2022-12-24T16:28:34.773Z,2.60
2022-12-24T16:31:03.077Z,3.00
2022-12-24T16:33:31.189Z,1.93
2022-12-24T16:35:59.377Z,2.40
2022-12-24T16:38:48.719Z,2.87
2022-12-24T16:41:16.714Z,2.90
2022-12-24T16:43:49.393Z,2.90
2022-12-24T16:46:17.495Z,3.00
2022-12-24T16:48:48.309Z,3.80
2022-12-24T16:51:16.324Z,3.47
2022-12-24T16:53:45.612Z,3.73
2022-12-24T16:56:13.562Z,2.87
2022-12-24T16:58:41.512Z,2.97
2022-12-24T17:01:10.525Z,10.50
2022-12-24T17:03:38.600Z,4.10
2022-12-24T17:06:09.170Z,3.40
2022-12-24T17:08:37.335Z,3.03
2022-12-24T17:11:06.894Z,2.90
2022-12-24T17:13:34.888Z,2.13
2022-12-24T17:16:03.332Z,2.60
2022-12-24T17:18:31.571Z,3.00
2022-12-24T17:21:01.119Z,3.63
2022-12-24T17:23:29.486Z,3.93
2022-12-24T17:25:58.008Z,2.20
2022-12-24T17:28:27.355Z,2.43
2022-12-24T17:30:55.431Z,3.30
2022-12-24T17:33:23.413Z,3.43
2022-12-24T17:35:52.190Z,3.90
2022-12-24T17:38:20.154Z,3.50
2022-12-24T17:40:48.142Z,4.50
2022-12-24T17:43:16.191Z,3.60
2022-12-24T17:45:45.490Z,3.40
2022-12-24T17:48:13.926Z,2.90
2022-12-24T17:50:41.931Z,2.30
2022-12-24T17:53:09.938Z,4.40
2022-12-24T17:55:41.529Z,2.80
2022-12-24T17:58:09.707Z,4.80
2022-12-24T18:00:37.859Z,1.90
2022-12-24T18:03:07.611Z,2.50
2022-12-24T18:05:36.172Z,2.73
2022-12-24T18:08:04.400Z,2.57
2022-12-24T18:10:32.367Z,2.43
2022-12-24T18:13:00.334Z,4.07
2022-12-24T18:15:28.370Z,3.30
2022-12-24T18:17:59.174Z,2.77
2022-12-24T18:20:28.584Z,4.10
2022-12-24T18:22:57.182Z,3.33
2022-12-24T18:25:25.217Z,2.27
2022-12-24T18:27:53.221Z,2.50
2022-12-24T18:30:27.356Z,2.63
2022-12-24T18:32:55.823Z,3.00
2022-12-24T18:35:24.842Z,3.33
2022-12-24T18:37:54.314Z,3.83
2022-12-24T18:40:22.640Z,3.27
2022-12-24T18:42:50.773Z,4.30
2022-12-24T18:45:19.345Z,5.57
2022-12-24T18:47:47.525Z,3.57
2022-12-24T18:50:15.583Z,2.50
2022-12-24T18:52:43.708Z,2.80
2022-12-24T18:55:14.351Z,3.90
2022-12-24T18:57:42.546Z,3.10
2022-12-24T19:00:11.789Z,3.07
2022-12-24T19:02:39.857Z,3.73
2022-12-24T19:05:09.131Z,3.93
2022-12-24T19:07:37.390Z,2.97
2022-12-24T19:10:06.271Z,3.20
2022-12-24T19:12:35.730Z,3.27
2022-12-24T19:15:04.940Z,3.87
2022-12-24T19:17:33.364Z,4.00
2022-12-24T19:20:01.396Z,3.10
2022-12-24T19:22:29.480Z,2.97
2022-12-24T19:24:57.480Z,3.37
2022-12-24T19:27:25.440Z,3.60
2022-12-24T19:29:55.044Z,3.03
2022-12-24T19:32:23.099Z,4.70
2022-12-24T19:34:51.143Z,3.70
2022-12-24T19:37:19.196Z,3.03
2022-12-24T19:39:47.226Z,3.80
2022-12-24T19:42:15.548Z,3.50
2022-12-24T19:44:43.600Z,2.87
2022-12-24T19:47:13.128Z,3.30
2022-12-24T19:49:41.166Z,4.13
2022-12-24T19:52:09.260Z,3.93
2022-12-24T19:54:37.520Z,3.37
2022-12-24T19:57:05.768Z,3.23
2022-12-24T19:59:33.995Z,3.37
2022-12-24T20:02:02.277Z,3.83
2022-12-24T20:04:31.796Z,3.50
2022-12-24T20:07:00.886Z,4.80
2022-12-24T20:09:31.436Z,3.80
2022-12-24T20:11:59.474Z,4.83
2022-12-24T20:14:28.719Z,3.87
2022-12-24T20:16:57.231Z,3.57
2022-12-24T20:19:25.399Z,4.00
2022-12-24T20:21:54.893Z,4.70
2022-12-24T20:24:22.918Z,3.67
2022-12-24T20:26:51.167Z,4.20
2022-12-24T20:29:19.369Z,3.57
2022-12-24T20:31:47.416Z,3.77
2022-12-24T20:34:15.440Z,3.97
2022-12-24T20:36:43.695Z,4.40
2022-12-24T20:39:13.569Z,4.70
2022-12-24T20:41:41.621Z,3.77
2022-12-24T20:44:11.102Z,4.30
2022-12-24T20:46:39.076Z,5.10
2022-12-24T20:49:07.285Z,4.03
2022-12-24T20:51:35.230Z,3.73
2022-12-24T20:54:03.272Z,4.77
2022-12-24T20:56:32.701Z,3.67
2022-12-24T20:59:01.885Z,4.40
2022-12-24T21:01:30.871Z,5.03
2022-12-24T21:04:04.225Z,3.57
2022-12-24T21:06:32.858Z,4.17
2022-12-24T21:09:01.277Z,4.37
2022-12-24T21:11:46.749Z,4.27
2022-12-24T21:14:17.035Z,3.93
2022-12-24T21:16:45.699Z,4.63
2022-12-24T21:19:17.337Z,4.03
2022-12-24T21:21:45.355Z,3.40
2022-12-24T21:24:13.466Z,3.43
2022-12-24T21:26:41.875Z,3.90
2022-12-24T21:29:10.157Z,4.40
2022-12-24T21:31:39.524Z,3.03
2022-12-24T21:34:07.582Z,3.97
2022-12-24T21:36:35.603Z,4.40
2022-12-24T21:39:03.627Z,3.63
2022-12-24T21:41:31.593Z,3.13
2022-12-24T21:44:01.889Z,3.20
2022-12-24T21:46:30.124Z,2.50
2022-12-24T21:49:17.029Z,2.80
2022-12-24T21:51:46.833Z,3.97
2022-12-24T21:54:26.821Z,3.37
2022-12-24T21:57:14.607Z,3.17
2022-12-24T21:59:43.277Z,2.37
2022-12-24T22:02:13.387Z,3.70
2022-12-24T22:04:43.303Z,2.93
2022-12-24T22:07:39.154Z,2.87
2022-12-24T22:10:26.030Z,3.50
2022-12-24T22:12:54.515Z,3.23
2022-12-24T22:15:23.056Z,2.50
2022-12-24T22:17:51.050Z,3.17
2022-12-24T22:20:20.485Z,2.40
2022-12-24T22:22:49.336Z,2.77
2022-12-24T22:25:17.746Z,2.53
2022-12-24T22:27:45.721Z,3.40
2022-12-24T22:30:14.131Z,2.90
2022-12-24T22:32:42.117Z,3.13
2022-12-24T22:35:10.568Z,4.87
2022-12-24T22:37:39.933Z,3.70
2022-12-24T22:40:10.159Z,2.93
2022-12-24T22:42:38.443Z,3.00
2022-12-24T22:45:07.668Z,4.13
2022-12-24T22:47:35.810Z,2.77
2022-12-24T22:50:03.999Z,2.83
2022-12-24T22:52:33.318Z,2.27
2022-12-24T22:55:02.821Z,3.60
2022-12-24T22:57:30.840Z,4.20
2022-12-24T22:59:58.997Z,2.20
2022-12-24T23:02:28.806Z,2.30
2022-12-24T23:04:57.905Z,3.40
2022-12-24T23:07:25.921Z,2.60
2022-12-24T23:09:53.923Z,2.60
2022-12-24T23:12:37.179Z,4.40
2022-12-24T23:15:05.676Z,2.73
2022-12-24T23:17:33.614Z,3.07
2022-12-24T23:20:03.053Z,2.77
2022-12-24T23:22:31.195Z,2.53
2022-12-24T23:24:59.445Z,3.33
2022-12-24T23:27:28.924Z,2.50
2022-12-24T23:29:56.986Z,3.27
2022-12-24T23:32:24.957Z,2.47
2022-12-24T23:34:52.930Z,2.30
2022-12-24T23:37:21.196Z,2.37
2022-12-24T23:39:49.308Z,2.93
2022-12-24T23:42:17.289Z,2.57
2022-12-24T23:44:46.618Z,2.97
2022-12-24T23:47:15.031Z,2.30
2022-12-24T23:49:43.024Z,2.10
2022-12-24T23:52:11.127Z,2.53
2022-12-24T23:54:39.144Z,2.53
2022-12-24T23:57:07.139Z,1.90
2022-12-24T23:59:35.401Z,3.03
